Tiempo atmosférico en la estación meteorológica de Antequera, Málaga (400 m.)



Fecha
DESCASC
Temp. máxima en grados centígrados (hora)
DESCASC
Temp. mínima en grados centígrados (hora)
DESCASC
Temp. media en grados centígrados
DESCASC
Racha de viento máxima en m/sg (hora)
DESCASC
Velocidad máxima media en intervalos de 10 minutos(hora)
DESCASC
Precipitaciones diarias en mm
DESCASC
Precipitaciones de 00:00 a 06:00 en mm
DESCASC
Precipitaciones de 06:00 a 12:00 en mm
DESCASC
Precipitaciones de 12:00 a 18:00 en mm
DESCASC
Precipitaciones de 18:00 a 24:00 en mm
DESCASC
20-09-2018 29 (16:20) 20.5 (05:50) 24.8 9.72 (17:50) 5.28 (15:20) 0 0 0 0 0
19-09-2018 31.1 (16:10) 18.4 (09:00) 24.8 8.33 (19:00) 5 (18:20) 0 0 0 0 0
18-09-2018 30.6 (16:10) 18.3 (08:10) 24.4 7.5 (17:10) 4.17 (17:10) 0 0 0 0 0
17-09-2018 27.7 (15:10) 19.9 (08:30) 23.8 10.28 (17:00) 5.56 (16:20) 0 0 0 0 0
16-09-2018 28.7 (16:00) 18 (00:00) 23.4 9.72 (22:40) 5 (22:20) 0 0 0 0 0
15-09-2018 25.6 (14:00) 16.4 (00:00) 21 6.39 (15:30) 3.06 (21:50) 3.1 0.1 0 3 0
14-09-2018 26 (15:30) 17.7 (00:00) 21.9 12.5 (17:00) 5.83 (17:10) 10.1 0 0 10 0.1
13-09-2018 31.2 (14:50) 17.5 (00:00) 24.4 8.61 (15:30) 3.89 (15:40) 0 0 0 0 0
12-09-2018 29.3 (17:10) 21.9 (00:00) 25.6 11.11 (00:50) 5.83 (01:20) 0 0 0 0 0
11-09-2018 -- (--) -- (--) -- 13.61 (20:40) 7.78 (19:50) 0 0 0 0 0
10-09-2018 -- (--) -- (--) -- 10.56 (19:20) 5.83 (20:10) -- 0 -- 0 0
09-09-2018 -- (--) -- (--) -- 10.28 (18:10) 5.56 (18:10) 0.1 0 0.1 0 0
08-09-2018 23.3 (12:20) 18.2 (00:00) 20.8 6.94 (05:00) 4.17 (05:30) 2.6 0 0 0.3 2.3
07-09-2018 29 (17:40) 16.3 (00:00) 22.6 9.17 (12:50) 3.89 (13:20) 0 0 0 0 0
06-09-2018 29 (18:00) 14.4 (00:00) 21.7 6.67 (15:10) 2.78 (02:30) 0 0 0 0 0
05-09-2018 27.6 (17:10) 17.3 (00:00) 22.4 6.39 (14:40) 3.33 (20:40) 0 0 0 0 0
04-09-2018 29.8 (17:10) 15.4 (00:00) 22.6 6.94 (14:50) 3.33 (15:20) 0 0 0 0 0
03-09-2018 32.2 (17:20) 19.9 (00:00) 26.1 12.5 (15:50) 5.83 (01:20) 0 0 0 0 0
02-09-2018 32.6 (16:50) 23.9 (00:00) 28.2 13.61 (11:20) 6.67 (23:59) 0 0 0 0 0
01-09-2018 30.8 (17:20) 21.6 (00:00) 26.2 12.78 (15:10) 5.56 (18:30) 0 0 0 0 0
31-08-2018 30.9 (15:50) 19.6 (00:00) 25.3 11.67 (00:10) 6.67 (00:10) 0 0 0 0 0
30-08-2018 30.1 (17:30) 16 (00:00) 23.1 14.17 (23:59) 6.11 (23:59) 0 0 0 0 0
29-08-2018 32.2 (17:20) 18.3 (00:00) 25.3 9.17 (20:40) 3.61 (19:40) 0 0 0 0 0
28-08-2018 33.6 (14:50) 21.6 (00:00) 27.6 16.67 (03:10) 8.33 (03:20) 0 0 0 0 0
27-08-2018 33.5 (16:50) 22.9 (00:00) 28.2 13.61 (09:00) 6.94 (09:00) 0.1 0 0 0 0.1
26-08-2018 33.1 (16:00) 19.6 (00:00) 26.3 10.83 (13:20) 5.83 (16:40) 0 0 0 0 0
25-08-2018 36.7 (15:40) 18.9 (00:00) 27.8 6.67 (18:00) 2.22 (13:50) 0 0 0 0 0

Gráficas

Temp. máximas Temp. mínimas Temp. medias Precipitaciones Rachas de viento máximas Velocidades máximas media en intervalos de 10 minutos

Datos horarios

Fecha y hora oficial Temperatura (ºC) Velocidad del viento (km/h) Dirección del viento Racha (km/h) Dirección de racha Precipitación (mm) Presión (hPa) Tendencia (hPa) Humedad (%)
2018-09-23 23:00:00 25.2 0 Calma 15 Sudoeste 0 973.2 0.8 40
2018-09-23 22:00:00 25.7 0 Calma 14 Sur 0 973 0.9 38
2018-09-23 21:00:00 27.4 5 Sur 20 Sudoeste 0 972.5 0.4 33
2018-09-23 20:00:00 28.3 6 Sur 30 Sur 0 972.4 0.1 32
2018-09-23 19:00:00 30 11 Sur 33 Sudeste 0 972.1 -0.5 31
2018-09-23 18:00:00 30.6 12 Sur 30 Sudeste 0 972.1 -0.8 31
2018-09-23 17:00:00 31 10 Sur 33 Sur 0 972.3 -1.3 31
2018-09-23 16:00:00 31.5 9 Sur 29 Sudoeste 0 972.6 -1.4 29
2018-09-23 15:00:00 32 14 Sur 30 Sudeste 0 972.9 -1.7 29
2018-09-23 14:00:00 32 9 Sudeste 26 Sudeste 0 973.6 -1.2 29
2018-09-23 13:00:00 31 12 Sudeste 24 Sudeste 0 974 -0.4 32
2018-09-23 12:00:00 29.6 10 Sur 21 Sur 0 974.6 0.6 34
2018-09-23 11:00:00 25.4 0 Calma 4 Sur 0 974.8 1.3 44
2018-09-23 10:00:00 21.5 0 Calma 4 Sudeste 0 974.4 1.1 52
2018-09-23 09:00:00 18.5 0 Calma 5 Este 0 974 0.6 55
2018-09-23 08:00:00 18.2 0 Calma 3 Este 0 973.5 0.1 51
2018-09-23 07:00:00 19.8 0 Calma 0 Calma 0 973.3 -0.5 46
2018-09-23 06:00:00 21.6 0 Calma 9 Sur 0 973.4 -0.7 43
2018-09-23 05:00:00 22.8 4 Sudeste 14 Sur 0 973.4 -0.9 41
2018-09-23 04:00:00 24 5 Sur 13 Sur 0 973.8 -0.8 38
2018-09-23 03:00:00 24 0 Calma 12 Nordeste 0 974.1 -0.5 37
2018-09-23 02:00:00 24.4 0 Calma 13 Sudeste 0 974.3 -0.2 38
2018-09-23 01:00:00 24.7 0 Calma 15 Sudoeste 0 974.6 0.6 38
2018-09-23 00:00:00 24.8 0 Calma 11 Sudeste 0 974.6 1.1 41
2018-09-22 23:00:00 25.4 2 Sur 14 Sur 0 974.5 1.4 41
2018-09-22 22:00:00 26.1 6 Sur 17 Sur 0 974 1.2 40
2018-09-22 21:00:00 26.2 5 Sur 23 Sur 0 973.5 0.7 41
2018-09-22 20:00:00 27.1 10 Sur 28 Sudeste 0 973.1 0.3 39
2018-09-22 19:00:00 28.5 16 Sudeste 31 Sudeste 0 972.8 -0.3 38
2018-09-22 18:00:00 29.1 9 Sudoeste 27 Sudoeste 0 972.8 -0.8 39
2018-09-22 17:00:00 29.3 13 Sur 36 Sur 0 972.8 -1.1 41
2018-09-22 16:00:00 30.3 10 Sur 31 Sur 0 973.1 -1 41
2018-09-22 15:00:00 30.5 13 Sur 28 Sudeste 0 973.6 -0.5 43
2018-09-22 14:00:00 30.9 12 Sudeste 31 Sur 0 973.9 -0.2 38
2018-09-22 13:00:00 30 13 Sudeste 24 Sudeste 0 974.1 0.3 37
2018-09-22 12:00:00 28.8 6 Sur 19 Sur 0 974.1 0.9 39
2018-09-22 11:00:00 24.7 0 Calma 5 Noroeste 0 974.1 1.5 49
2018-09-22 10:00:00 20.1 0 Calma 6 Oeste 0 973.8 1.4 64
2018-09-22 09:00:00 17.3 0 Calma -- -- 0 973.2 1 70
2018-09-22 08:00:00 16.4 0 Calma -- -- 0 972.6 0.7 70
2018-09-22 07:00:00 17.1 0 Calma 3 Noroeste 0 972.4 0.2 68
2018-09-22 06:00:00 17.5 0 Calma 5 Nordeste 0 972.2 -0.2 66
2018-09-22 05:00:00 18.4 3 Nordeste 6 Nordeste 0 971.9 -0.5 62
2018-09-22 04:00:00 19.4 0 Calma 6 Nordeste 0 972.2 -0.2 61
2018-09-22 03:00:00 20.2 0 Calma -- -- 0 972.4 0.3 57
2018-09-22 02:00:00 21.3 0 Calma 0 Calma 0 972.4 0.4 52
2018-09-22 01:00:00 22.2 0 Calma 5 Noroeste 0 972.4 0.9 47
2018-09-22 00:00:00 23.3 3 Oeste 9 Oeste 0 972.1 1.5 43
2018-09-21 23:00:00 24.3 0 Calma 7 Noroeste 0 972 2 42
2018-09-21 22:00:00 25.7 0 Calma 19 Sudeste 0 971.5 1.8 38
2018-09-21 21:00:00 26.4 9 Sur 27 Sur 0 970.6 1 36
2018-09-21 20:00:00 28 13 Sur 28 Sudeste 0 970 0.4 36
2018-09-21 19:00:00 29.3 13 Sudeste 27 Sur 0 969.7 -0.2 35
2018-09-21 18:00:00 30.1 14 Sudeste 30 Sudeste 0 969.6 -0.7 35
2018-09-21 17:00:00 31.2 7 Sur 25 Sudeste 0 969.6 -1.5 34
2018-09-21 16:00:00 31.2 3 Sur 21 Este 0 969.9 -1.7 33
2018-09-21 15:00:00 30.9 5 Este 15 Nordeste 0 970.3 -1.3 33
2018-09-21 14:00:00 29.9 0 Calma 12 Este 0 971.1 -0.5 38
2018-09-21 13:00:00 28.2 3 Sur 12 Este 0 971.6 0.1 44
2018-09-21 12:00:00 26 0 Calma 7 Este 0 971.6 0.2 51
2018-09-21 11:00:00 22.4 0 Calma 4 Sudeste 0 971.6 0.8 65
2018-09-21 10:00:00 18.7 0 Calma 3 Oeste 0 971.5 1 83
2018-09-21 09:00:00 17.2 0 Calma 5 Oeste 0 971.4 1 87
2018-09-21 08:00:00 16.6 0 Calma 4 Nordeste 0 970.8 0.4 88
2018-09-21 07:00:00 16.9 0 Calma 5 Norte 0 970.5 -0.1 87
2018-09-21 06:00:00 17.7 0 Calma 6 Nordeste 0 970.4 -0.5 84
2018-09-21 05:00:00 18.8 0 Calma 6 Noroeste 0 970.4 -0.7 79
2018-09-21 04:00:00 20.1 2 Noroeste 6 Oeste 0 970.6 -0.7 75
2018-09-21 03:00:00 20.5 0 Calma 5 Oeste 0 970.9 -0.1 73
2018-09-21 02:00:00 21 0 Calma 8 Noroeste 0 971.1 0.2 72
2018-09-21 01:00:00 21.4 2 Noroeste 6 Oeste 0 971.3 0.8 71
2018-09-21 00:00:00 21.9 0 Calma 5 Oeste 0 971 1 69
2018-09-20 23:00:00 22.4 0 Calma 6 Este 0 970.9 1 65
2018-09-20 22:00:00 23.2 0 Calma 10 Sudoeste 0 970.5 0.8 60
2018-09-20 21:00:00 24.2 3 Sur 22 Sudeste 0 970 0.2 55
2018-09-20 20:00:00 25.5 10 Sur 34 Sudeste 0 969.9 -0.4 49
2018-09-20 19:00:00 26.6 17 Sudeste 33 Sudeste 0 969.7 -0.9 47
2018-09-20 18:00:00 28 17 Sudeste 35 Sudeste 0 969.8 -1.6 46
2018-09-20 17:00:00 28.2 17 Sudeste 33 Sudeste 0 970.3 -1.7 46
2018-09-20 16:00:00 28.3 12 Sur 32 Sudeste 0 970.6 -1.8 49
2018-09-20 15:00:00 27.7 15 Sudeste 31 Sudeste 0 971.4 -1.3 50
2018-09-20 14:00:00 27.4 13 Sudeste 30 Sudeste 0 972 -0.5 52
2018-09-20 13:00:00 26.4 13 Sudeste 28 Sur 0 972.4 0.3 57
2018-09-20 12:00:00 25.7 11 Sur 27 Sudeste 0 972.7 0.5 60
2018-09-20 11:00:00 24.7 6 Sudeste 27 Sudeste 0 972.5 0.7 62
2018-09-20 10:00:00 23.4 9 Sudeste 21 Sudeste 0 972.1 0.2 74
2018-09-20 09:00:00 22 10 Sudeste 23 Sudeste 0 972.2 0.2 78
2018-09-20 08:00:00 21.2 8 Sudeste 22 Sudeste 0 971.8 -0.1 81
2018-09-20 07:00:00 20.7 12 Sudeste 26 Sur 0 971.9 -0.2 84
2018-09-20 06:00:00 20.8 5 Sudeste 17 Sudeste 0 972 -0.3 82
2018-09-20 05:00:00 21.4 3 Sudeste 16 Sudoeste 0 971.9 -0.4 75
2018-09-20 04:00:00 20.9 3 Oeste 21 Sudeste 0 972.1 -0.6 74
2018-09-20 03:00:00 21.7 5 Sur 26 Sur 0 972.3 -0.6 73
2018-09-20 02:00:00 21.7 9 Sur 26 Sudeste 0 972.3 -0.2 71
2018-09-20 01:00:00 21.8 13 Sur 28 Sudeste 0 972.7 0.6 73
2018-09-20 00:00:00 22.5 13 Sudeste 26 Sur 0 972.9 1.2 70
2018-09-19 23:00:00 23.2 0 Calma 6 Noroeste 0 972.5 1.2 64
2018-09-19 22:00:00 23.5 0 Calma 12 Sur 0 972.1 1.5 62
2018-09-19 21:00:00 24.8 3 Sur 20 Sudeste 0 971.7 1.3 58
2018-09-19 20:00:00 26.2 8 Sur 28 Sudeste 0 971.3 0.8 55
2018-09-19 19:00:00 27.5 14 Sudeste 30 Sur 0 970.6 -0.2 47
2018-09-19 18:00:00 29.5 15 Sudeste 28 Sudeste 0 970.4 -0.7 40
2018-09-19 17:00:00 30.4 11 Sur 24 Sur 0 970.5 -1.2 38
2018-09-19 16:00:00 30.2 14 Sudeste 29 Sudeste 0 970.8 -1.5 39
2018-09-19 15:00:00 29.9 3 Sur 18 Sur 0 971.1 -1.2 41
2018-09-19 14:00:00 29.2 3 Sudeste 18 Este 0 971.7 -0.4 40
2018-09-19 13:00:00 27.9 0 Calma 15 Nordeste 0 972.3 0.6 53
2018-09-19 12:00:00 26 0 Calma 8 Este 0 972.3 1 59
2018-09-19 11:00:00 23.5 0 Calma 5 Sudeste 0 972.1 1.3 72
2018-09-19 10:00:00 21 0 Calma 0 Calma 0 971.7 1.1 85
2018-09-19 09:00:00 18.9 0 Calma 0 Calma 0 971.3 0.7 90
2018-09-19 08:00:00 18.7 0 Calma -- -- 0 970.8 0.5 90
2018-09-19 07:00:00 19.5 0 Calma 0 Calma 0 970.6 0.3 88
2018-09-19 06:00:00 19.6 0 Calma -- -- 0 970.6 0.2 88
2018-09-19 05:00:00 20.4 0 Calma -- -- 0 970.3 -0.1 85
2018-09-19 04:00:00 20.9 0 Calma 3 Sudoeste 0 970.3 -0.3 84
2018-09-19 03:00:00 20.8 0 Calma 5 Sudoeste 0 970.4 -0.3 84
2018-09-19 02:00:00 21.4 0 Calma 5 Sudoeste 0 970.4 0 80
2018-09-19 01:00:00 21.9 0 Calma 5 Oeste 0 970.6 0.8 78
2018-09-19 00:00:00 22.1 0 Calma 6 Noroeste 0 970.7 1.8 74
2018-09-18 23:00:00 23.1 0 Calma 5 Oeste 0 970.4 2.1 69
2018-09-18 22:00:00 24.1 0 Calma 7 Sudoeste 0 969.8 1.5 67
2018-09-18 21:00:00 25.1 0 Calma 13 Sur 0 968.9 -- 62
2018-09-18 20:00:00 25.5 2 Sudoeste 19 Sur 0 968.3 1.2 62
2018-09-18 19:00:00 26.4 9 Sudoeste 26 Sudoeste 0 968.3 0.9 55
2018-09-18 18:00:00 -- -- -- -- -- -- -- -- --
2018-09-18 17:00:00 29.6 6 Sudeste 18 Sudeste 0 967.1 -1.6 42
2018-09-18 16:00:00 30.5 4 Sudeste 15 Este 0 967.4 -1.7 40
2018-09-18 15:00:00 29.3 4 Este 17 Este 0 968.1 -1.3 42
2018-09-18 14:00:00 28.3 3 Sur 17 Este 0 968.7 -0.7 46
2018-09-18 13:00:00 27.2 3 Nordeste 16 Nordeste 0 969.1 0.2 52
2018-09-18 12:00:00 25 0 Calma 12 Sudeste 0 969.4 0.9 62
2018-09-18 11:00:00 23 0 Calma 8 Oeste 0 969.4 1.3 75
2018-09-18 10:00:00 20.5 0 Calma 2 Sudoeste 0 968.9 1.2 87
2018-09-18 09:00:00 18.9 0 Calma 3 Nordeste 0 968.5 1 92
2018-09-18 08:00:00 18.5 0 Calma 6 Nordeste 0 968.1 0.7 93
2018-09-18 07:00:00 19.1 0 Calma -- -- 0 967.7 0.2 92
2018-09-18 06:00:00 19.6 0 Calma -- -- 0 967.5 -0.3 91
2018-09-18 05:00:00 20.2 0 Calma -- -- 0 967.4 -0.6 89
2018-09-18 04:00:00 20.9 0 Calma 5 Nordeste 0 967.5 -0.5 86
2018-09-18 03:00:00 21.8 0 Calma 4 Sudeste 0 967.8 -0.3 84
2018-09-18 02:00:00 21.9 0 Calma 7 Oeste 0 968 -0.1 82
2018-09-18 01:00:00 22.2 0 Calma 12 Sudoeste 0 968 0.4 82
2018-09-18 00:00:00 22.5 2 Sudoeste 10 Sudoeste 0 968.1 1.1 82
2018-09-17 23:00:00 22.5 0 Calma 14 Sudeste 0 968.1 1.4 79
2018-09-17 22:00:00 23.1 4 Sur 20 Sur 0 967.6 1.2 74
2018-09-17 21:00:00 23.6 4 Sur 33 Sur 0 967 0.4 71
2018-09-17 20:00:00 24.2 7 Sur 27 Sur 0 966.7 -0.2 68
2018-09-17 19:00:00 24.9 16 Sudeste 35 Sudeste 0 966.4 -1.1 62
2018-09-17 18:00:00 26.3 16 Sur 35 Sudeste 0 966.6 -1.5 58
2018-09-17 17:00:00 26.6 17 Sudeste 37 Sur 0 966.9 -2.1 57
2018-09-17 16:00:00 26.8 17 Sudeste 37 Sur 0 967.5 -2.2 54
2018-09-17 15:00:00 27.5 14 Sur 34 Sur 0 968.1 -1.8 53
2018-09-17 14:00:00 26.2 14 Sudeste 32 Sur 0 969 -1.1 57
2018-09-17 13:00:00 26 13 Sudeste 34 Sur 0 969.7 0 58
2018-09-17 12:00:00 24.7 12 Sudeste 31 Sur 0 969.9 0.4 65
2018-09-17 11:00:00 22.6 8 Sudeste 28 Sudeste 0 970.1 1.2 74
2018-09-17 10:00:00 21.8 0 Calma 9 Sur 0 969.7 0.7 79
2018-09-17 09:00:00 20.9 3 Este 8 Este 0 969.5 0.3 84
2018-09-17 08:00:00 20.7 2 Sudeste 16 Este 0 968.9 -1 87
2018-09-17 07:00:00 20.7 8 Este 18 Sudeste 0 969 -1.4 87
2018-09-17 06:00:00 20.8 9 Este 19 Sudeste 0 969.2 -0.9 85
2018-09-17 05:00:00 21.6 4 Sudeste 15 Sudeste 0 969.9 -0.3 80
2018-09-17 04:00:00 21.1 3 Este 19 Sur 0 970.4 -0.5 81
2018-09-17 03:00:00 21.5 3 Sudeste 21 Sur 0 970.1 -0.6 76
2018-09-17 02:00:00 21.7 8 Sur 31 Sur 0 970.2 -0.8 77
2018-09-17 01:00:00 21.4 13 Sur 33 Sur 0 970.9 -0.2 76
2018-09-17 00:00:00 21.6 7 Sur 29 Sudeste 0 970.7 0.3 74
2018-09-16 23:00:00 21.6 14 Sudeste 35 Sur 0 971 0.7 73
2018-09-16 22:00:00 22.8 8 Sur 28 Sur 0 971.1 1.1 65
2018-09-16 21:00:00 23.1 14 Sur 33 Sur 0 970.4 0.8 64
2018-09-16 20:00:00 23.7 14 Sur 30 Sudeste 0 970.3 0.3 63
2018-09-16 19:00:00 25.1 14 Sur 29 Sudeste 0 970 -0.1 58
2018-09-16 18:00:00 26.1 16 Sudeste 33 Sudeste 0 969.6 -1.1 54
2018-09-16 17:00:00 27.3 12 Sur 27 Sur 0 970 -1.4 49
2018-09-16 16:00:00 28.7 10 Sudeste 22 Sudeste 0 970.1 -2.3 46
2018-09-16 15:00:00 27.1 5 Nordeste 19 Este 0 970.7 -1.9 46
2018-09-16 14:00:00 26.6 5 Este 14 Este 0 971.4 -1.3 50
2018-09-16 13:00:00 25.3 3 Este 11 Sudeste 0 972.4 -0.2 53
2018-09-16 12:00:00 23.6 0 Calma 11 Nordeste 0 972.6 0.2 62
2018-09-16 11:00:00 21.4 5 Nordeste 12 Este 0 972.7 0.8 71
2018-09-16 10:00:00 18.5 5 Nordeste 10 Este 0 972.6 1.1 88
2018-09-16 09:00:00 18.5 0 Calma 3 Este 0 972.4 1.4 91
2018-09-16 08:00:00 18.4 0 Calma 4 Este 0 971.9 0.6 90
2018-09-16 07:00:00 18.7 2 Nordeste 9 Este 0 971.5 -0.4 88
2018-09-16 06:00:00 19.4 3 Este 14 Sur 0 971 -1.5 86
2018-09-16 05:00:00 20.1 0 Calma 15 Sudeste 0 971.3 -1.3 84
2018-09-16 04:00:00 20.2 6 Este 22 Sudeste 0 971.9 -0.4 82
2018-09-16 03:00:00 20.6 6 Este 14 Sudeste 0 972.5 0.1 79
2018-09-16 02:00:00 20.9 3 Este 14 Sur 0 972.6 0.3 78
2018-09-16 01:00:00 20.6 2 Sudoeste 22 Sur 0 972.3 0.7 79
2018-09-16 00:00:00 20.7 4 Sudoeste 17 Sudoeste 0 972.4 1.5 83
2018-09-15 23:00:00 21 4 Sur 22 Sur 0 972.3 2 80
2018-09-15 22:00:00 21 8 Sur 23 Sudoeste 0 971.6 1.4 80
2018-09-15 21:00:00 20.9 0 Calma 9 Sur 0 970.9 0.8 82
2018-09-15 20:00:00 21.3 0 Calma 5 Nordeste 0 970.3 0.2 81
2018-09-15 19:00:00 21.4 2 Nordeste 8 Nordeste 0 970.2 0.3 80
2018-09-15 18:00:00 21.2 2 Nordeste 8 Nordeste 0 970.1 0.2 83
2018-09-15 17:00:00 20.7 0 Calma 6 Oeste 1.9 970.1 0.1 88
2018-09-15 16:00:00 20.4 2 Sur 23 Sudeste 1.1 969.9 -0.7 84
2018-09-15 15:00:00 22.4 10 Sudeste 20 Sudeste 0 969.9 -1 70
2018-09-15 14:00:00 24.9 6 Sur 19 Sur 0 970 -0.6 58
2018-09-15 13:00:00 23.5 2 Sudeste 9 Este 0 970.6 0.7 67
2018-09-15 12:00:00 21.5 2 Nordeste 12 Este 0 970.9 0.9 75
2018-09-15 11:00:00 19.7 0 Calma 6 Este 0 970.6 1.2 85
2018-09-15 10:00:00 18.2 0 Calma 5 Oeste 0 969.9 0.5 91
2018-09-15 09:00:00 16.6 0 Calma 4 Norte 0 970 0.9 95
2018-09-15 08:00:00 16.6 0 Calma -- -- 0 969.4 0.3 93
2018-09-15 07:00:00 16.8 0 Calma -- -- 0 969.4 -0.3 93
2018-09-15 06:00:00 16.9 0 Calma 5 Noroeste 0 969.1 -0.8 93
2018-09-15 05:00:00 17.4 3 Noroeste 7 Noroeste 0.1 969.1 -1.4 92
2018-09-15 04:00:00 17.7 0 Calma 7 Nordeste 0 969.7 -1.2 91
2018-09-15 03:00:00 17.4 3 Nordeste 8 Noroeste 0 969.9 -1.1 94
2018-09-15 02:00:00 18 0 Calma 7 Noroeste 0 970.5 -0.6 91
2018-09-15 01:00:00 18.2 0 Calma 3 Sudoeste 0 970.9 0.3 91
2018-09-15 00:00:00 18.5 0 Calma 6 Sudoeste 0 971 0.9 93
2018-09-14 23:00:00 19 0 Calma 4 Sudeste 0 971.1 1.8 93
2018-09-14 22:00:00 19.3 0 Calma 6 Nordeste 0 970.6 0.9 90
2018-09-14 21:00:00 18.8 0 Calma 7 Noroeste 0 970.1 0.6 88
2018-09-14 20:00:00 18.9 0 Calma 6 Sudoeste 0.1 969.3 -0.9 92
2018-09-14 19:00:00 18.7 0 Calma 16 Noroeste 0 969.7 -0.3 91
2018-09-14 18:00:00 18.7 8 Noroeste 35 Este 10 969.5 -0.7 88
2018-09-14 17:00:00 21.2 20 Este 45 Este 0 970.2 -0.3 75
2018-09-14 16:00:00 25.3 6 Sudeste 28 Sur 0 970 -0.9 64
2018-09-14 15:00:00 25.1 14 Sudeste 27 Sudeste 0 970.2 -0.8 66
2018-09-14 14:00:00 23.8 12 Sudeste 39 Sudeste 0 970.5 -0.1 73
2018-09-14 13:00:00 23.6 12 Sudeste 28 Sudeste 0 970.9 0.5 70
2018-09-14 12:00:00 22.7 2 Sur 20 Sudeste 0 971 1.1 72
2018-09-14 11:00:00 22 0 Calma 8 Oeste 0 970.6 1.1 75
2018-09-14 10:00:00 19.6 0 Calma 2 Oeste 0 970.4 0.8 81
2018-09-14 09:00:00 18.5 0 Calma 2 Este 0 969.9 0.3 84
2018-09-14 08:00:00 18.8 0 Calma 8 Noroeste 0 969.5 -0.2 86
2018-09-14 07:00:00 19.1 0 Calma 4 Oeste 0 969.6 -0.6 83
2018-09-14 06:00:00 19 0 Calma 2 Noroeste 0 969.6 -0.9 81
2018-09-14 05:00:00 19 0 Calma 5 Noroeste 0 969.7 -0.8 80
2018-09-14 04:00:00 19.8 0 Calma 4 Nordeste 0 970.2 -0.4 79
2018-09-14 03:00:00 20.2 0 Calma 8 Este 0 970.5 -0.2 77
2018-09-14 02:00:00 21.2 3 Nordeste 9 Nordeste 0 970.5 -0.3 76
2018-09-14 01:00:00 21.9 0 Calma 8 Noroeste 0 970.6 0.3 72
2018-09-14 00:00:00 22.8 3 Noroeste 10 Noroeste 0 970.7 0.9 68
2018-09-13 23:00:00 23.5 6 Noroeste 9 Noroeste 0 970.8 1.1 64
2018-09-13 22:00:00 23.8 0 Calma 8 Sudoeste 0 970.3 0.5 63
2018-09-13 21:00:00 24.3 0 Calma 7 Sudoeste 0 969.8 -0.1 63
2018-09-13 20:00:00 25.2 0 Calma 12 Sudoeste 0 969.7 0.1 55
2018-09-13 19:00:00 25.6 5 Sudoeste 18 Sur 0 969.8 -0.1 53
2018-09-13 18:00:00 26.9 8 Oeste 18 Oeste 0 969.9 -0.4 47
2018-09-13 17:00:00 28.8 3 Sudoeste 13 Sudoeste 0 969.6 -1.3 41
2018-09-13 16:00:00 28.7 8 Sudeste 31 Sudeste 0 969.9 -1.7 44
2018-09-13 15:00:00 30.3 5 Nordeste 19 Oeste 0 970.3 -1.8 39
2018-09-13 14:00:00 29.4 6 Noroeste 18 Noroeste 0 970.9 -1.2 40
2018-09-13 13:00:00 28.7 3 Noroeste 14 Noroeste 0 971.6 -0.2 44
2018-09-13 12:00:00 26.7 3 Nordeste 10 Nordeste 0 972.1 0.3 51
2018-09-13 11:00:00 23 0 Calma 6 Este 0 972.1 0.6 73
2018-09-13 10:00:00 20.3 0 Calma 2 Sudeste 0 971.8 0.5 84
2018-09-13 09:00:00 18.3 0 Calma 2 Este 0 971.8 0.4 90
2018-09-13 08:00:00 18.6 0 Calma 6 Noroeste 0 971.5 -0.1 91
2018-09-13 07:00:00 18.8 0 Calma 0 Calma 0 971.3 -0.5 87
2018-09-13 06:00:00 19.1 3 Noroeste 6 Noroeste 0 971.4 -1 90
2018-09-13 05:00:00 19.6 0 Calma 3 Nordeste 0 971.6 -1.3 85
2018-09-13 04:00:00 19.9 0 Calma 3 Nordeste 0 971.8 -1.3 84
2018-09-13 03:00:00 20.6 0 Calma 9 Nordeste 0 972.4 -1 82
2018-09-13 02:00:00 21.7 0 Calma 6 Nordeste 0 972.9 -0.3 81
2018-09-13 01:00:00 22.2 0 Calma 4 Nordeste 0 973.1 0.5 78
2018-09-13 00:00:00 23.1 0 Calma 6 Sudoeste 0 973.4 1.3 75
2018-09-12 23:00:00 24 0 Calma 10 Sur 0 973.2 1.3 71
2018-09-12 22:00:00 24.6 0 Calma 14 Sur 0 972.6 0.6 67
2018-09-12 21:00:00 25.7 5 Sur 18 Sudeste 0 972.1 -0.3 62
2018-09-12 20:00:00 27.3 9 Sudeste 24 Sudeste 0 971.9 -0.4 56
2018-09-12 19:00:00 28.2 13 Sudeste 23 Sudeste 0 972 -0.7 52
2018-09-12 18:00:00 29.1 9 Sudeste 22 Este 0 972.4 -1 50
2018-09-12 17:00:00 29 9 Sudeste 19 Sudeste 0 972.3 -1.5 50
2018-09-12 16:00:00 28.2 10 Sudeste 26 Sur 0 972.7 -1.8 51
2018-09-12 15:00:00 27.6 9 Sudeste 30 Sudeste 0 973.4 -1.2 53
2018-09-12 14:00:00 28.1 11 Sudeste 27 Sudeste 0 973.8 -0.3 55
2018-09-12 13:00:00 27 11 Sudeste 30 Sur 0 974.5 0.9 59
2018-09-12 12:00:00 26.2 13 Sudeste 29 Este 0 974.6 1.1 63
2018-09-12 11:00:00 24.6 11 Sudeste 29 Sudeste 0 974.1 1.1 69
2018-09-12 10:00:00 24.3 8 Sudeste 23 Sudeste 0 973.6 1.2 69
2018-09-12 09:00:00 23.1 4 Este 27 Sudeste 0 973.5 1.3 73
2018-09-12 08:00:00 22 9 Sudeste 27 Sur 0 973 0.7 79
2018-09-12 07:00:00 21.9 4 Sudeste 32 Sur 0 972.4 0.2 81
2018-09-12 06:00:00 22.3 9 Sudeste 28 Sudeste 0 972.2 0 80
2018-09-12 05:00:00 22.5 6 Sur 27 Sur 0 972.3 -0.1 80
2018-09-12 04:00:00 22.6 14 Sur 32 Sur 0 972.2 -0.3 80
2018-09-12 03:00:00 22.3 10 Sur 72 Sur 0 972.2 -0.6 82
2018-09-12 02:00:00 22.3 13 Sur 40 Sur 0 972.4 0 81
2018-09-12 01:00:00 22.6 17 Sur 40 Sudeste 0 972.5 0.9 79
2018-09-12 00:00:00 23 12 Sur 42 Sur 0 972.8 1.9 75
2018-09-11 23:00:00 23 19 Sur 45 Sur 0 972.4 1.8 75
2018-09-11 22:00:00 23.4 15 Sur 40 Sudeste 0 971.6 1.1 70
2018-09-11 21:00:00 23.9 19 Sur 49 Sur 0 970.9 0.3 66
2018-09-11 20:00:00 24.7 24 Sur 47 Sur 0 970.6 -0.3 59
2018-09-11 19:00:00 26.4 19 Sur 42 Sur 0 970.5 -0.5 55
2018-09-11 18:00:00 27.4 15 Sur 46 Sudeste 0 970.6 -0.8 51
2018-09-11 17:00:00 27.5 21 Sur 39 Sur 0 970.9 -1.4 51
2018-09-11 16:00:00 28.6 11 Sur 31 Sur 0 971 -1.6 45
2018-09-11 15:00:00 28.1 12 Sur 35 Sur 0 971.4 -1.5 47
2018-09-11 14:00:00 27.6 9 Sur 33 Sur 0 972.3 -0.7 50
2018-09-11 13:00:00 27.5 16 Sudeste 31 Sudeste 0 972.6 0.2 51
2018-09-11 12:00:00 25 11 Sudeste 26 Sur 0 972.9 0.5 57
2018-09-11 11:00:00 24.1 13 Sudeste -- -- -- 973 1 62
2018-09-11 10:00:00 22 2 Nordeste -- -- -- 972.4 0.5 76
2018-09-11 09:00:00 20.8 3 Nordeste 8 Este 0 972.4 0.6 81
2018-09-11 08:00:00 20.6 4 Sudeste 19 Este 0 972 -0.1 82
2018-09-11 07:00:00 20.6 7 Sudeste 21 Sudeste 0 971.9 -0.2 84
2018-09-11 06:00:00 20.9 5 Sudeste 25 Sudeste 0 971.8 -0.3 83
2018-09-11 05:00:00 21.3 12 Sudeste 26 Sudeste 0 972.1 -0.2 79
2018-09-11 04:00:00 21.5 6 Sudeste 18 Sudeste 0 972.1 -0.3 82
2018-09-11 03:00:00 21.4 6 Este 13 Sudeste 0 972.1 -0.5 82
2018-09-11 02:00:00 21.8 3 Sudoeste 25 Sudeste 0 972.3 -0.2 78
2018-09-11 01:00:00 21.8 14 Sur 34 Sudeste 0 972.4 0.2 76
2018-09-11 00:00:00 22 9 Sur 30 Sur 0 972.6 1.2 72
2018-09-10 23:00:00 22.5 15 Sur 33 Sur 0 972.5 1.2 68
2018-09-10 22:00:00 22.4 16 Sur 33 Sur 0 972.2 1.2 71
2018-09-10 21:00:00 22.9 12 Sur 37 Sur 0 971.4 0.8 68
2018-09-10 20:00:00 23.8 19 Sudeste 38 Sur 0 971.3 0.9 56
2018-09-10 19:00:00 26 15 Sur 32 Sur 0 971 0.3 48
2018-09-10 18:00:00 27 12 Sur 30 Sur 0 970.6 -0.6 45
2018-09-10 17:00:00 27.9 14 Sudeste 29 Sur 0 970.4 -1 44
2018-09-10 16:00:00 27.9 10 Sur 31 Sudeste 0 970.7 -1.3 43
2018-09-10 15:00:00 29 12 Sur 30 Sudeste 0 971.2 -1.1 43
2018-09-10 14:00:00 27.9 6 Nordeste 21 Este 0 971.4 -1.3 40
2018-09-10 13:00:00 26.4 5 Este 18 Sudeste 0 972 -0.3 46
2018-09-10 12:00:00 24.4 3 Este -- -- -- 972.3 0.4 55
2018-09-10 11:00:00 20.5 4 Nordeste 11 Este 0 972.7 1.2 70
2018-09-10 10:00:00 17.7 0 Calma -- -- -- 972.3 0.7 82
2018-09-10 09:00:00 15.7 0 Calma 3 Este 0 971.9 0.3 85
2018-09-10 08:00:00 15.4 0 Calma 7 Oeste 0 971.5 -0.5 91
2018-09-10 07:00:00 15.3 0 Calma 8 Noroeste 0 971.6 -0.1 90
2018-09-10 06:00:00 15.6 3 Noroeste 6 Noroeste 0 971.6 -0.2 88
2018-09-10 05:00:00 15.6 0 Calma -- -- 0 972 0.1 87
2018-09-10 04:00:00 17 0 Calma 0 Calma 0 971.7 -0.7 84
2018-09-10 03:00:00 17.5 0 Calma 5 Noroeste 0 971.8 -0.6 81
2018-09-10 02:00:00 18.5 3 Oeste 7 Oeste 0 971.9 -0.4 77
2018-09-10 01:00:00 19.1 0 Calma 3 Norte 0 972.4 1.2 73
2018-09-10 00:00:00 20 0 Calma 10 Noroeste 0 972.4 1.6 68
2018-09-09 23:00:00 20.7 7 Noroeste 11 Noroeste 0 972.3 2.1 64
2018-09-09 22:00:00 21.3 0 Calma 18 Sudeste 0 971.2 1.9 61
2018-09-09 21:00:00 21.7 2 Sur 21 Sudeste 0 970.8 1.4 58
2018-09-09 20:00:00 22 0 Calma 25 Sudeste 0 970.2 0.9 59
2018-09-09 19:00:00 22.3 13 Sur 37 Sudeste 0 969.3 -0.1 58
2018-09-09 18:00:00 22.8 18 Sur 33 Sur 0 969.4 0 59
2018-09-09 17:00:00 23.8 18 Sur 33 Sur 0 969.3 -0.3 57
2018-09-09 16:00:00 24.3 14 Sudeste 34 Sudeste 0 969.4 -0.8 55
2018-09-09 15:00:00 25.9 5 Este 18 Este 0 969.4 -1.1 46
2018-09-09 14:00:00 26 8 Este 19 Nordeste 0 969.6 -1.1 46
2018-09-09 13:00:00 24.7 6 Nordeste 17 Este 0 970.2 -0.4 47
2018-09-09 12:00:00 23.8 2 Nordeste 12 Norte 0 970.5 -0.1 60
2018-09-09 11:00:00 21.1 0 Calma 6 Este 0 970.7 0.5 72
2018-09-09 10:00:00 18.9 0 Calma 5 Sudeste 0 970.6 0.7 84
2018-09-09 09:00:00 17.2 0 Calma 0 Calma 0 970.6 -- 89
2018-09-09 08:00:00 16.5 0 Calma 8 Oeste 0.1 970.2 0.5 90
2018-09-09 07:00:00 16.2 0 Calma 5 Nordeste 0 969.9 0 91
2018-09-09 06:00:00 -- -- -- -- -- -- -- -- --
2018-09-09 05:00:00 17.3 0 Calma 9 Nordeste 0 969.7 -0.7 91
2018-09-09 04:00:00 17.5 2 Este 8 Nordeste 0 969.9 -0.3 96
2018-09-09 03:00:00 18.2 0 Calma 4 Noroeste 0 970.4 0.3 94
2018-09-09 02:00:00 18.1 0 Calma 3 Noroeste 0 970.4 0.6 94
2018-09-09 01:00:00 18.4 0 Calma 4 Noroeste 0 970.2 0.5 94
2018-09-09 00:00:00 18.8 0 Calma 5 Oeste 0 970.1 0.9 93
2018-09-08 23:00:00 19.1 0 Calma -- -- 0 969.8 0.7 92
2018-09-08 22:00:00 19.8 0 Calma 4 Nordeste 0 969.7 0.8 91
2018-09-08 21:00:00 20.2 0 Calma 3 Norte 0 969.2 0.6 91
2018-09-08 20:00:00 20.6 0 Calma 7 Nordeste 0 969.1 0.6 87
2018-09-08 19:00:00 20.5 2 Nordeste 11 Nordeste 2.3 968.9 0.2 90
2018-09-08 18:00:00 22.7 2 Nordeste 13 Este 0 968.6 0.1 73
2018-09-08 17:00:00 22.7 0 Calma 11 Sudoeste 0 968.5 0 73
2018-09-08 16:00:00 22.1 3 Sudoeste 14 Sudoeste 0.3 968.7 -0.1 78
2018-09-08 15:00:00 22.2 3 Sudeste 20 Sur 0 968.5 0.1 71
2018-09-08 14:00:00 22.4 5 Sudeste 19 Sudeste 0 968.5 0 69
2018-09-08 13:00:00 22.9 10 Sudeste 23 Sudeste 0 968.8 0.6 65
2018-09-08 12:00:00 22.4 0 Calma 10 Oeste 0 968.4 0.8 65
2018-09-08 11:00:00 20.2 2 Sudeste 12 Este 0 968.5 1.6 68
2018-09-08 10:00:00 19 0 Calma 9 Oeste 0 968.2 1.4 69
2018-09-08 09:00:00 18.4 0 Calma 6 Norte 0 967.6 0.9 71
2018-09-08 08:00:00 18.4 4 Nordeste 13 Este 0 966.9 0.2 72
2018-09-08 07:00:00 18.6 7 Este 21 Nordeste 0 966.8 0.2 70
2018-09-08 06:00:00 18.6 9 Nordeste 24 Este 0 966.7 -0.2 68
2018-09-08 05:00:00 20.6 13 Este 25 Sudeste 0 966.7 0 61
2018-09-08 04:00:00 19.9 3 Sudeste 12 Este 0 966.6 -0.1 60
2018-09-08 03:00:00 20.3 2 Este 15 Este 0 966.9 0.2 56
2018-09-08 02:00:00 21.3 6 Sudeste 22 Este 0 966.7 0 52
2018-09-08 01:00:00 22.1 7 Sudeste 24 Sudeste 0 966.7 0.8 49
2018-09-08 00:00:00 22.8 10 Sudeste 30 Sudeste 0 966.7 1.7 49
2018-09-07 23:00:00 22.6 6 Este 17 Este 0 966.7 2 49
2018-09-07 22:00:00 24.3 4 Sudeste 16 Sudeste 0 965.9 1.5 45
2018-09-07 21:00:00 25.1 5 Sur 16 Sur 0 965 0.3 43
2018-09-07 20:00:00 26.6 5 Sur 23 Sur 0 964.7 -0.2 39
2018-09-07 19:00:00 28 5 Sudoeste 23 Sur 0 964.4 -0.7 37
2018-09-07 18:00:00 28.5 12 Sur 25 Sur 0 964.7 -0.8 35
2018-09-07 17:00:00 28.5 11 Sur 26 Sudeste 0 964.9 -0.8 34
2018-09-07 16:00:00 28.1 13 Sur 28 Sur 0 965.1 -1.1 35
2018-09-07 15:00:00 28.4 11 Sur 30 Sur 0 965.5 -0.8 35
2018-09-07 14:00:00 27.9 12 Sur 29 Sudeste 0 965.7 -1.1 35
2018-09-07 13:00:00 26.2 9 Sur 33 Sur 0 966.2 -0.3 43
2018-09-07 12:00:00 25.2 3 Sur 11 Sur 0 966.3 -0.2 50
2018-09-07 11:00:00 19.6 0 Calma 8 Nordeste 0 966.8 0.5 77
2018-09-07 10:00:00 17.3 5 Nordeste 10 Nordeste 0 966.5 0.2 90
2018-09-07 09:00:00 16.9 0 Calma 9 Este 0 966.5 0.4 92
2018-09-07 08:00:00 16.9 0 Calma 5 Noroeste 0 966.3 0.1 92
2018-09-07 07:00:00 16.3 3 Noroeste 8 Noroeste 0 966.3 0.2 95
2018-09-07 06:00:00 16.8 0 Calma 9 Noroeste 0 966.1 -0.4 92
2018-09-07 05:00:00 17.3 0 Calma 10 Noroeste 0 966.2 -0.5 89
2018-09-07 04:00:00 18.3 0 Calma 13 Noroeste 0 966.1 -0.6 84
2018-09-07 03:00:00 19.1 3 Noroeste 14 Noroeste 0 966.5 0 77
2018-09-07 02:00:00 20.8 0 Calma 11 Noroeste 0 966.7 -0.2 69
2018-09-07 01:00:00 21.6 0 Calma 3 Noroeste 0 966.7 0.2 65
2018-09-07 00:00:00 22.4 0 Calma 8 Oeste 0 966.5 0.8 62
2018-09-06 23:00:00 23.2 0 Calma 16 Oeste 0 966.9 1.3 59
2018-09-06 22:00:00 24.2 7 Oeste 19 Noroeste 0 966.5 1.2 56
2018-09-06 21:00:00 25.8 4 Noroeste 16 Noroeste 0 965.7 0.4 46
2018-09-06 20:00:00 27 5 Noroeste 15 Noroeste 0 965.6 0.1 43
2018-09-06 19:00:00 27.7 2 Noroeste 19 Noroeste 0 965.3 -0.6 40
2018-09-06 18:00:00 28.2 5 Noroeste 19 Noroeste 0 965.3 -1.2 39
2018-09-06 17:00:00 28.1 8 Noroeste 22 Noroeste 0 965.5 -1.4 40
2018-09-06 16:00:00 28 8 Oeste 24 Nordeste 0 965.9 -1.4 42
2018-09-06 15:00:00 26.7 4 Oeste 19 Noroeste 0 966.5 -1.1 46
2018-09-06 14:00:00 26.1 5 Noroeste 19 Noroeste 0 966.9 -0.7 46
2018-09-06 13:00:00 25.1 6 Noroeste 19 Noroeste 0 967.3 -0.1 54
2018-09-06 12:00:00 23.2 4 Noroeste 12 Noroeste 0 967.6 0.2 62
2018-09-06 11:00:00 21.3 3 Nordeste 8 Este 0 967.6 0.6 69
2018-09-06 10:00:00 18.4 0 Calma 4 Este 0 967.4 0.3 79
2018-09-06 09:00:00 16.4 0 Calma 0 Calma 0 967.4 0.2 86
2018-09-06 08:00:00 14.6 0 Calma -- -- 0 967 -0.3 92
2018-09-06 07:00:00 15.3 0 Calma -- -- 0 967.1 -0.3 91
2018-09-06 06:00:00 15.9 0 Calma 5 Nordeste 0 967.2 -0.5 90
2018-09-06 05:00:00 15.9 0 Calma 6 Este 0 967.3 -0.8 88
2018-09-06 04:00:00 17.1 0 Calma 9 Noroeste 0 967.4 -0.6 86
2018-09-06 03:00:00 17.5 9 Noroeste 16 Noroeste 0 967.7 -0.4 85
2018-09-06 02:00:00 18.2 8 Noroeste 16 Noroeste 0 968.1 0.4 80
2018-09-06 01:00:00 19.2 3 Noroeste 12 Noroeste 0 968 0.7 73
2018-09-06 00:00:00 20.6 2 Noroeste 15 Oeste 0 968.1 1.6 67
2018-09-05 23:00:00 21.8 7 Noroeste 19 Noroeste 0 967.7 1.6 63
2018-09-05 22:00:00 22.6 8 Noroeste 23 Noroeste 0 967.3 1.1 61
2018-09-05 21:00:00 24.2 12 Noroeste 22 Noroeste 0 966.5 0.2 55
2018-09-05 20:00:00 26.1 9 Noroeste 20 Noroeste 0 966.1 -0.6 50
2018-09-05 19:00:00 26.8 6 Noroeste 18 Oeste 0 966.2 -1 49
2018-09-05 18:00:00 26.9 4 Noroeste 17 Oeste 0 966.3 -1.4 47
2018-09-05 17:00:00 27 5 Noroeste 20 Norte 0 966.7 -1.6 49
2018-09-05 16:00:00 27.2 3 Noroeste 21 Oeste 0 967.2 -1.7 49
2018-09-05 15:00:00 26.2 4 Norte 23 Noroeste 0 967.7 -1.6 51
2018-09-05 14:00:00 25.5 3 Noroeste 21 Noroeste 0 968.3 -0.8 53
2018-09-05 13:00:00 24.6 3 Nordeste 17 Norte 0 968.9 0 56
2018-09-05 12:00:00 22.6 3 Noroeste 15 Oeste 0 969.3 0.5 63
2018-09-05 11:00:00 21.2 2 Oeste 11 Oeste 0 969.1 0.7 68
2018-09-05 10:00:00 20.2 3 Este 9 Este 0 968.9 0.9 74
2018-09-05 09:00:00 18.5 0 Calma 6 Noroeste 0 968.8 0.9 80
2018-09-05 08:00:00 18.4 0 Calma 3 Noroeste 0 968.4 -- 81
2018-09-05 07:00:00 18.3 0 Calma 2 Oeste 0 968 0.7 84
2018-09-05 06:00:00 18.1 0 Calma 5 Noroeste 0 967.9 0.4 84
2018-09-05 05:00:00 -- 0 Calma 6 Noroeste 0 -- -- --
2018-09-05 04:00:00 17.5 0 Calma 6 Noroeste 0 967.3 -0.3 87
2018-09-05 03:00:00 17.7 4 Noroeste 9 Noroeste 0 967.5 0 85
2018-09-05 02:00:00 18.4 3 Noroeste 12 Noroeste 0 967.8 1 80
2018-09-05 01:00:00 19.3 3 Noroeste 12 Norte 0 967.6 1.5 75
2018-09-05 00:00:00 20.4 2 Noroeste 12 Oeste 0 967.5 2.3 69
2018-09-04 23:00:00 21.7 5 Noroeste 15 Noroeste 0 966.8 2.2 64
2018-09-04 22:00:00 23 7 Noroeste 21 Oeste 0 966.1 1.8 57
2018-09-04 21:00:00 24.8 10 Noroeste 20 Oeste 0 965.2 1 54
2018-09-04 20:00:00 26.7 10 Noroeste 23 Noroeste 0 964.6 0.4 49
2018-09-04 19:00:00 28.9 7 Oeste 22 Noroeste 0 964.3 -0.2 44
2018-09-04 18:00:00 29.3 7 Noroeste 24 Noroeste 0 964.2 -0.7 44
2018-09-04 17:00:00 29.4 6 Noroeste 23 Oeste 0 964.2 -0.9 44
2018-09-04 16:00:00 29.2 8 Noroeste 23 Oeste 0 964.5 -0.9 44
2018-09-04 15:00:00 28.9 10 Oeste 25 Oeste 0 964.9 -1.4 44
2018-09-04 14:00:00 28.3 0 Calma 18 Noroeste 0 965.1 -1.4 44
2018-09-04 13:00:00 25.7 6 Oeste 15 Oeste 0 965.4 -0.9 52
2018-09-04 12:00:00 23.2 3 Este 11 Este 0 966.3 -0.1 63
2018-09-04 11:00:00 20.4 2 Este 11 Este 0 966.5 0.4 75
2018-09-04 10:00:00 19.4 0 Calma 10 Norte 0 966.3 0.4 80
2018-09-04 09:00:00 18 4 Nordeste 12 Nordeste 0 966.4 0.4 85
2018-09-04 08:00:00 17.6 0 Calma 4 Este 0 966.1 0.2 87
2018-09-04 07:00:00 16.9 0 Calma 4 Este 0 965.9 0.2 90
2018-09-04 06:00:00 16.2 0 Calma 4 Nordeste 0 966 -0.2 91
2018-09-04 05:00:00 16 0 Calma 7 Noroeste 0 965.9 -0.6 88
2018-09-04 04:00:00 17 0 Calma 4 Nordeste 0 965.7 -0.9 87
2018-09-04 03:00:00 17.5 0 Calma 0 Calma 0 966.2 -0.2 85
2018-09-04 02:00:00 18.4 0 Calma 5 Noroeste 0 966.5 0.5 82
2018-09-04 01:00:00 19 0 Calma 8 Norte 0 966.6 1.2 79
2018-09-04 00:00:00 19.9 0 Calma 8 Norte 0 966.4 2.1 74
2018-09-03 23:00:00 21.3 2 Noroeste 15 Oeste 0 966 2.3 68
2018-09-03 22:00:00 22.6 6 Noroeste 21 Oeste 0 965.4 1.8 64
2018-09-03 21:00:00 24.2 10 Noroeste 28 Noroeste 0 964.3 0.8 57
2018-09-03 20:00:00 26.5 16 Noroeste 27 Noroeste 0 963.7 0.1 52
2018-09-03 19:00:00 29.4 13 Noroeste 25 Noroeste 0 963.6 -0.3 46
2018-09-03 18:00:00 31.2 11 Noroeste 26 Oeste 0 963.5 -0.9 43
2018-09-03 17:00:00 31.8 8 Sur 25 Sur 0 963.6 -1.3 40
2018-09-03 16:00:00 31 6 Sudeste 45 Este 0 963.9 -1.6 43
2018-09-03 15:00:00 30.8 6 Sur 32 Sur 0 964.4 -1.6 46
2018-09-03 14:00:00 29.8 9 Sudeste 26 Sudeste 0 964.9 -1.2 50
2018-09-03 13:00:00 27.3 0 Calma 9 Sudoeste 0 965.5 -0.4 59
2018-09-03 12:00:00 26.2 3 Oeste 10 Este 0 966 0.2 67
2018-09-03 11:00:00 24.1 0 Calma 11 Nordeste 0 966.1 0 73
2018-09-03 10:00:00 21.9 6 Nordeste 19 Nordeste 0 965.9 -0.3 85
2018-09-03 09:00:00 21 10 Nordeste 17 Nordeste 0 965.8 -0.3 87
2018-09-03 08:00:00 20.4 0 Calma 4 Este 0 966.1 -0.1 90
2018-09-03 07:00:00 20.6 0 Calma 4 Nordeste 0 966.2 0 90
2018-09-03 06:00:00 20.2 0 Calma 8 Nordeste 0 966.1 0.1 92
2018-09-03 05:00:00 21.6 0 Calma 9 Este 0 966.2 0.6 82
2018-09-03 04:00:00 22.5 3 Noroeste 14 Noroeste 0 966.2 0.6 78
2018-09-03 03:00:00 23.5 5 Noroeste 25 Sudoeste 0 966 0.2 71
2018-09-03 02:00:00 27.2 10 Sur 38 Sur 0 965.6 -0.5 46
2018-09-03 01:00:00 27.4 16 Sur 38 Sudeste 0 965.6 0 46
2018-09-03 00:00:00 26.8 24 Sur 41 Sur 0 965.8 0.6 51
2018-09-02 23:00:00 26.8 3 Oeste 25 Sur 0 966.1 1 50
2018-09-02 22:00:00 28 12 Sudeste 24 Sudeste 0 965.6 0.3 43
2018-09-02 21:00:00 29.2 0 Calma 30 Sudoeste 0 965.2 -0.5 38
2018-09-02 20:00:00 30 13 Sur 35 Sur 0 965.1 -1.3 38
2018-09-02 19:00:00 31.2 19 Sur 42 Sudeste 0 965.3 -1.4 35
2018-09-02 18:00:00 31.8 19 Sur 40 Sur 0 965.7 -1.4 34
2018-09-02 17:00:00 32 13 Sur 35 Sur 0 966.4 -1.1 38
2018-09-02 16:00:00 32.4 18 Sudeste 36 Sudeste 0 966.7 -1.2 41
2018-09-02 15:00:00 31.6 18 Sudeste 40 Sudeste 0 967.1 -1.3 44
2018-09-02 14:00:00 30.7 23 Sudeste 42 Sudeste 0 967.5 -0.8 45
2018-09-02 13:00:00 30 21 Sudeste 38 Sudeste 0 967.9 -0.2 46
2018-09-02 12:00:00 28.4 19 Sudeste 49 Sudeste 0 968.4 0.3 50
2018-09-02 11:00:00 27.9 16 Sur 34 Sur 0 968.3 0.7 45
2018-09-02 10:00:00 26.2 14 Sudeste 35 Sudeste 0 968.1 0.6 47
2018-09-02 09:00:00 25.4 16 Sur 34 Sur 0 968.1 0.5 50
2018-09-02 08:00:00 24.8 14 Sur 42 Sur 0 967.6 0 55
2018-09-02 07:00:00 24.5 4 Sudeste 35 Sur 0 967.5 -0.4 57
2018-09-02 06:00:00 24.3 15 Sudeste 36 Sur 0 967.6 -0.6 64
2018-09-02 05:00:00 24.7 9 Sur 25 Sur 0 967.6 -0.8 60
2018-09-02 04:00:00 25.1 3 Sudeste 18 Este 0 967.9 -0.5 62
2018-09-02 03:00:00 24.3 2 Este 21 Sudeste 0 968.2 -0.1 68
2018-09-02 02:00:00 24.5 0 Calma 26 Sudoeste 0 968.4 0.1 67
2018-09-02 01:00:00 25.3 7 Sur 30 Sur 0 968.4 0.4 62
2018-09-02 00:00:00 25.4 5 Sur 26 Sur 0 968.3 1 62
2018-09-01 23:00:00 25.7 4 Sur 17 Sur 0 968.3 1.1 60
2018-09-01 22:00:00 26.1 7 Sur 21 Sur 0 968 0.9 56
2018-09-01 21:00:00 26.9 7 Sur 28 Sur 0 967.3 0.3 53
2018-09-01 20:00:00 27.8 9 Sur 32 Sur 0 967.2 -0.4 54
2018-09-01 19:00:00 29.1 15 Sur 37 Sudeste 0 967.1 -1 51
2018-09-01 18:00:00 30.2 14 Sur 39 Sudeste 0 967 -1.2 49
2018-09-01 17:00:00 30.7 11 Sur 40 Sur 0 967.6 -0.9 45
2018-09-01 16:00:00 30.1 10 Sur 46 Sur 0 968.1 -0.9 46
2018-09-01 15:00:00 29.3 14 Sur 37 Sur 0 968.2 -1 51
2018-09-01 14:00:00 29.1 12 Sur 40 Sur 0 968.5 -0.5 52
2018-09-01 13:00:00 28.6 10 Sudeste 34 Sudeste 0 969 0.4 55
2018-09-01 12:00:00 27.6 14 Este 36 Este 0 969.2 1 60
2018-09-01 11:00:00 26.4 13 Sudeste 26 Sudeste 0 969 1 62
2018-09-01 10:00:00 25.3 11 Sudeste 24 Este 0 968.6 1 70
2018-09-01 09:00:00 23.3 10 Sudeste 33 Sudeste 0 968.2 0.6 80
2018-09-01 08:00:00 21.6 13 Sudeste 31 Sudeste 0 968 0.2 88
2018-09-01 07:00:00 22.1 15 Sudeste 31 Sudeste 0 967.6 -0.6 85
2018-09-01 06:00:00 22.7 15 Sudeste 31 Sudeste 0 967.6 -0.9 80
2018-09-01 05:00:00 22.5 19 Sudeste 34 Sudeste 0 967.8 -0.9 82
2018-09-01 04:00:00 22.7 15 Sudeste 31 Sudeste 0 968.2 -0.5 81
2018-09-01 03:00:00 22.8 15 Sudeste 33 Sudeste 0 968.5 0 81
2018-09-01 02:00:00 22.6 15 Este 32 Este 0 968.7 0.3 82
2018-09-01 01:00:00 23.2 12 Este 19 Este 0 968.7 0.8 78
2018-09-01 00:00:00 23.9 6 Este 15 Este 0 968.5 1.1 72
2018-08-31 23:00:00 25.1 3 Sudeste 20 Este 0 968.4 1.6 66
2018-08-31 22:00:00 25.4 0 Calma 18 Sur 0 967.9 0.9 65
2018-08-31 21:00:00 26.3 7 Sur 32 Sur 0 967.4 0.3 63
2018-08-31 20:00:00 26.8 13 Sur 29 Sur 0 966.8 -0.7 62
2018-08-31 19:00:00 28.4 11 Sur 26 Sudeste 0 967 -1.1 56
2018-08-31 18:00:00 30.1 7 Sur 28 Sur 0 967.1 -1.4 51
2018-08-31 17:00:00 30.5 8 Sur 27 Sur 0 967.5 -1.4 52
2018-08-31 16:00:00 30.1 11 Sur 34 Sur 0 968.1 -0.8 52
2018-08-31 15:00:00 29.6 11 Sur 33 Sudeste 0 968.5 -0.9 56
2018-08-31 14:00:00 29.1 17 Sudeste 34 Sur 0 968.9 -0.3 58
2018-08-31 13:00:00 28.4 16 Sudeste 33 Sudeste 0 968.9 -0.2 61
2018-08-31 12:00:00 26.5 11 Sudeste 31 Sudeste 0 969.4 0.6 65
2018-08-31 11:00:00 26 11 Sudeste 27 Sudeste 0 969.2 0.7 66
2018-08-31 10:00:00 24.2 4 Este 15 Este 0 969.1 0.8 75
2018-08-31 09:00:00 22.3 0 Calma 5 Oeste 0 968.8 0.5 82
2018-08-31 08:00:00 20 0 Calma 8 Nordeste 0 968.5 -0.2 87
2018-08-31 07:00:00 21.1 0 Calma 8 Sur 0 968.3 -0.8 85
2018-08-31 06:00:00 21.7 0 Calma 23 Sur 0 968.3 -1.2 82
2018-08-31 05:00:00 22.6 11 Sudeste 20 Este 0 968.7 -1.1 82
2018-08-31 04:00:00 22.5 8 Sudeste 18 Este 0 969.1 -0.8 83
2018-08-31 03:00:00 22.6 12 Sudeste 26 Sur 0 969.5 -0.4 82
2018-08-31 02:00:00 22.5 13 Sudeste 31 Sur 0 969.8 0.3 81
2018-08-31 01:00:00 23 17 Sur 42 Sudeste 0 969.9 1.1 78
2018-08-31 00:00:00 23.5 22 Sudeste 51 Sudeste 0 969.9 1.2 75
2018-08-30 23:00:00 24.9 0 Calma 6 Sudoeste 0 969.5 1.3 69
2018-08-30 22:00:00 25.5 0 Calma 14 Sur 0 968.8 0.8 65
2018-08-30 21:00:00 26.5 3 Sur 19 Sur 0 968.7 0.3 63
2018-08-30 20:00:00 28.3 3 Sur 19 Sur 0 968.2 -0.5 55
2018-08-30 19:00:00 29.4 8 Sudeste 24 Sur 0 968 -1.3 52
2018-08-30 18:00:00 29 13 Sudeste 29 Sudeste 0 968.4 -1.3 56
2018-08-30 17:00:00 29.5 13 Sudeste 31 Sur 0 968.7 -1.1 55
2018-08-30 16:00:00 28.3 11 Sur 34 Sur 0 969.3 -0.8 58
2018-08-30 15:00:00 27.9 13 Sur 30 Sur 0 969.7 -0.8 60
2018-08-30 14:00:00 28.6 14 Sur 33 Sudeste 0 969.8 -0.6 58
2018-08-30 13:00:00 27.6 17 Sudeste 37 Sudeste 0 970.1 -0.2 60
2018-08-30 12:00:00 26.6 17 Sur 33 Sur 0 970.5 0.7 61
2018-08-30 11:00:00 25.4 16 Sur 28 Sur 0 970.4 1.1 63
2018-08-30 10:00:00 22.6 3 Sur 14 Sudeste 0 970.3 1.3 65
2018-08-30 09:00:00 17.8 0 Calma 5 Sudeste 0 969.8 1 70
2018-08-30 08:00:00 16.2 0 Calma 2 Este 0 969.3 0.3 72
2018-08-30 07:00:00 17.1 0 Calma 0 Calma 0 969 -0.2 70
2018-08-30 06:00:00 18 0 Calma 2 Noroeste 0 968.8 -1 67
2018-08-30 05:00:00 18.6 0 Calma 5 Nordeste 0 969 -0.3 67
2018-08-30 04:00:00 20.2 6 Nordeste 9 Norte 0 969.2 -0.2 62
2018-08-30 03:00:00 20 0 Calma 4 Nordeste 0 969.8 0.4 63
2018-08-30 02:00:00 21.1 0 Calma 4 Sudeste 0 969.3 0.2 62
2018-08-30 01:00:00 22.2 0 Calma 8 Noroeste 0 969.4 0.8 57
2018-08-30 00:00:00 23.7 4 Noroeste 9 Noroeste 0 969.4 1.4 53
2018-08-29 23:00:00 24.8 2 Oeste 8 Oeste 0 969.1 1.5 51
2018-08-29 22:00:00 25.7 0 Calma 10 Oeste 0 968.6 1.2 47
2018-08-29 21:00:00 27.9 5 Oeste 33 Noroeste 0 968 0.7 43
2018-08-29 20:00:00 29.6 9 Noroeste 23 Oeste 0 967.6 0.1 41
2018-08-29 19:00:00 31.2 8 Noroeste 24 Noroeste 0 967.4 -0.7 40
2018-08-29 18:00:00 31.3 2 Oeste 20 Noroeste 0 967.3 -1.1 41
2018-08-29 17:00:00 31.2 6 Oeste 23 Noroeste 0 967.5 -1.2 42
2018-08-29 16:00:00 30.7 2 Noroeste 20 Noroeste 0 968.1 -1.1 43
2018-08-29 15:00:00 30.7 5 Oeste 21 Nordeste 0 968.4 -1.1 46
2018-08-29 14:00:00 29.6 3 Norte 15 Noroeste 0 968.7 -0.9 48
2018-08-29 13:00:00 28.9 2 Norte 18 Oeste 0 969.2 -0.1 52
2018-08-29 12:00:00 26.6 0 Calma 12 Noroeste 0 969.5 0.3 64
2018-08-29 11:00:00 24.3 2 Norte 13 Oeste 0 969.6 0.4 73
2018-08-29 10:00:00 22 2 Noroeste 9 Noroeste 0 969.3 0.4 79
2018-08-29 09:00:00 20.2 0 Calma 0 Calma 0 969.2 0.2 82
2018-08-29 08:00:00 18.4 0 Calma 4 Este 0 969.2 0.3 88
2018-08-29 07:00:00 19.3 0 Calma 11 Nordeste 0 968.9 -0.3 87
2018-08-29 06:00:00 19.9 0 Calma 5 Nordeste 0 969 -0.3 86
2018-08-29 05:00:00 20.4 0 Calma 0 Calma 0 968.9 -0.5 86
2018-08-29 04:00:00 21.2 0 Calma 5 Oeste 0 969.2 0 82
2018-08-29 03:00:00 21.9 0 Calma 3 Sur 0 969.3 0.5 79
2018-08-29 02:00:00 22.2 0 Calma 4 Sudoeste 0 969.4 0.6 78
2018-08-29 01:00:00 22.9 0 Calma 8 Sudoeste 0 969.2 1.3 74
2018-08-29 00:00:00 23.9 0 Calma 8 Sudoeste 0 968.8 1.8 70
2018-08-28 23:00:00 25.2 0 Calma 12 Sudoeste 0 968.8 2.4 63
2018-08-28 22:00:00 26.4 0 Calma 8 Sur 0 967.9 1.5 56
2018-08-28 21:00:00 28.1 3 Sur 22 Sudeste 0 967 0.4 50
2018-08-28 20:00:00 29.9 14 Sur 29 Sur 0 966.4 -0.6 45
2018-08-28 19:00:00 31.1 18 Sur 44 Sur 0 966.4 -1 41
2018-08-28 18:00:00 31.7 21 Sudeste 39 Sudeste 0 966.6 -1.2 41
2018-08-28 17:00:00 32 21 Sur 42 Sudeste 0 967 -1.2 43
2018-08-28 16:00:00 32.9 19 Sudeste 39 Sudeste 0 967.4 -1.1 40
2018-08-28 15:00:00 32.6 15 Sur 31 Sudeste 0 967.8 -0.7 40
2018-08-28 14:00:00 32.3 12 Sur 31 Sur 0 968.2 -0.2 43
2018-08-28 13:00:00 32.3 8 Sudeste 23 Sur 0 968.5 0.1 43
2018-08-28 12:00:00 30.7 6 Sudeste 23 Sudeste 0 968.5 0.1 48
2018-08-28 11:00:00 28.3 13 Sudeste 23 Sur 0 968.4 0.7 53
2018-08-28 10:00:00 26.3 10 Sudeste 24 Sudeste 0 968.4 1 60
2018-08-28 09:00:00 25.8 3 Este 15 Este 0 968.4 1.7 62
2018-08-28 08:00:00 23.3 0 Calma 22 Este 0 967.7 0.6 70
2018-08-28 07:00:00 22.2 0 Calma 12 Oeste 0 967.4 0 76
2018-08-28 06:00:00 22.8 7 Oeste 14 Noroeste 0 966.7 -1.4 75
2018-08-28 05:00:00 23.2 8 Oeste 33 Sur 0 967.1 -1.4 75
2018-08-28 04:00:00 25.8 11 Sur 60 Sur 0 967.4 -0.9 62
2018-08-28 03:00:00 24.6 26 Sur 44 Sudeste 0 968.1 0 72
2018-08-28 02:00:00 25.8 8 Sudoeste 30 Sur 0 968.5 0.1 60
2018-08-28 01:00:00 26.1 10 Sur 34 Sudoeste 0 968.3 1.4 58
2018-08-28 00:00:00 25.6 10 Oeste 43 Sur 0 968.1 2.7 66
2018-08-27 23:00:00 24.3 15 Sur 49 Sudeste 0 968.4 3.7 75
2018-08-27 22:00:00 26.5 15 Sudoeste 48 Sudoeste 0 966.9 1 60
2018-08-27 21:00:00 28.6 9 Sur 28 Sur 0 965.4 -1.5 50
2018-08-27 20:00:00 30.2 0 Calma 43 Sudeste 0 964.7 -0.9 46
2018-08-27 19:00:00 27.5 6 Nordeste 21 Sur 0.1 965.9 0.4 57
2018-08-27 18:00:00 30.6 6 Sudoeste 26 Sudeste 0 966.9 0.6 48
2018-08-27 17:00:00 32.7 10 Sur 35 Sur 0 965.6 -1.4 47
2018-08-27 16:00:00 32.3 14 Sudeste 36 Sudeste 0 965.5 -1.3 50
2018-08-27 15:00:00 31.4 19 Sudeste 35 Sudeste 0 966.3 -0.5 52
2018-08-27 14:00:00 31.2 5 Sur 26 Sur 0 967 0.8 46
2018-08-27 13:00:00 30.9 6 Sudeste 25 Sudeste 0 966.8 0.5 49
2018-08-27 12:00:00 29.9 9 Sudeste 34 Sudeste 0 966.8 1 52
2018-08-27 11:00:00 27.3 12 Sudeste 33 Sudeste 0 966.2 0.7 64
2018-08-27 10:00:00 26.8 10 Sudeste 49 Sudeste 0 966.3 1.2 64
2018-08-27 09:00:00 24.4 25 Sudeste 49 Sur 0 965.8 0.7 72
2018-08-27 08:00:00 23.6 20 Sudeste 37 Sudeste 0 965.5 0.1 69
2018-08-27 07:00:00 23.4 10 Sudeste 31 Sur 0 965.1 -1.1 64
2018-08-27 06:00:00 23.2 5 Sudeste 22 Sur 0 965.1 -1.1 63
2018-08-27 05:00:00 23.1 7 Sudeste 24 Este 0 965.4 -1.3 62
2018-08-27 04:00:00 23.3 0 Calma 19 Sur 0 966.2 -0.4 62
2018-08-27 03:00:00 23.4 4 Sur 24 Sur 0 966.2 -0.6 61
2018-08-27 02:00:00 24 5 Sur 21 Sur 0 966.7 0.1 62
2018-08-27 01:00:00 23.9 2 Este 12 Este 0 966.6 0.4 63
2018-08-27 00:00:00 24.5 0 Calma 6 Sudoeste 0 966.8 1.1 60
2018-08-26 23:00:00 25.9 0 Calma 9 Sudeste 0 966.6 1.1 55
2018-08-26 22:00:00 27.6 0 Calma 15 Sur 0 966.2 0.6 49
2018-08-26 21:00:00 28.9 4 Sur 23 Sudeste 0 965.7 0 45
2018-08-26 20:00:00 30.6 12 Sudeste 25 Sur 0 965.5 -0.2 43
2018-08-26 19:00:00 31.5 15 Sudeste 32 Sur 0 965.6 -0.5 41
2018-08-26 18:00:00 32.1 19 Sudeste 35 Sudeste 0 965.7 -1.2 41
2018-08-26 17:00:00 32.5 20 Sur 36 Sudeste 0 965.7 -1.1 40
2018-08-26 16:00:00 32.6 13 Sur 34 Sur 0 966.1 -1 41
2018-08-26 15:00:00 32.3 13 Sudeste 32 Sudeste 0 966.9 -0.2 43
2018-08-26 14:00:00 31.2 14 Sudeste 39 Sur 0 966.8 -0.2 46
2018-08-26 13:00:00 29.7 20 Sudeste 35 Sur 0 967.1 0.6 50
2018-08-26 12:00:00 29.3 17 Sur 32 Sudeste 0 967.1 0.9 51
2018-08-26 11:00:00 28.1 14 Sur 26 Sudeste 0 967 1.3 48
2018-08-26 10:00:00 25.9 0 Calma 8 Sudoeste 0 966.5 1.1 55
2018-08-26 09:00:00 21.9 0 Calma 6 Oeste 0 966.2 0.8 61
2018-08-26 08:00:00 20 0 Calma 5 Oeste 0 965.7 0.3 62
2018-08-26 07:00:00 20.1 0 Calma 2 Nordeste 0 965.4 -0.1 60
2018-08-26 06:00:00 20.6 0 Calma 6 Noroeste 0 965.4 -0.4 58
2018-08-26 05:00:00 21 0 Calma 6 Oeste 0 965.4 -0.5 56
2018-08-26 04:00:00 23 0 Calma 5 Noroeste 0 965.5 -0.5 53
2018-08-26 03:00:00 23.1 0 Calma 8 Noroeste 0 965.8 0.1 51
2018-08-26 02:00:00 24.6 0 Calma 2 Nordeste 0 965.9 0.4 49
2018-08-26 01:00:00 26.1 0 Calma 8 Noroeste 0 966 0.9 46
2018-08-26 00:00:00 28.1 3 Noroeste 7 Noroeste 0 965.7 1.2 44
2018-08-25 23:00:00 28.5 0 Calma 5 Noroeste 0 965.5 1.3 43
2018-08-25 22:00:00 29.7 0 Calma 0 Calma 0 965.1 1.1 41
2018-08-25 21:00:00 32 0 Calma 15 Oeste 0 964.5 0.4 39
2018-08-25 20:00:00 34.2 5 Oeste 17 Sudoeste 0 964.2 -0.1 36
2018-08-25 19:00:00 35.6 6 Oeste 17 Sudeste 0 964 -0.9 32
2018-08-25 18:00:00 35.2 6 Sur 24 Sur 0 964.1 -1.2 32
2018-08-25 17:00:00 35 3 Sur 14 Sur 0 964.3 -1.6 32
2018-08-25 16:00:00 35.2 4 Oeste 18 Sudoeste 0 964.9 -1.6 32
2018-08-25 15:00:00 35.7 0 Calma 22 Sudeste 0 965.3 -1.9 31
2018-08-25 14:00:00 35.4 3 Sudeste 20 Este 0 965.9 -1.4 32
2018-08-25 13:00:00 34.7 0 Calma 10 Sur 0 966.5 -0.8 35
2018-08-25 12:00:00 32.4 0 Calma 3 Sudeste 0 967.2 -0.1 41
2018-08-25 11:00:00 27.4 0 Calma 4 Este 0 967.3 0.2 51
2018-08-25 10:00:00 23.9 0 Calma 4 Este 0 967.3 0.3 56
2018-08-25 09:00:00 21.6 0 Calma 3 Nordeste 0 967.3 0.3 64
2018-08-25 08:00:00 19.3 0 Calma 6 Nordeste 0 967.1 -0.3 67
2018-08-25 07:00:00 19.5 3 Nordeste 5 Nordeste 0 967 -0.6 63
2018-08-25 06:00:00 20.5 0 Calma 0 Calma 0 967 -1 61
2018-08-25 05:00:00 21.1 0 Calma 6 Noroeste 0 967.4 -0.7 58
2018-08-25 04:00:00 21.9 0 Calma 5 Oeste 0 967.6 -0.5 57
2018-08-25 03:00:00 22.5 0 Calma 0 Calma 0 968 -0.2 56
2018-08-25 02:00:00 23.6 0 Calma 0 Calma 0 968.1 -0.3 53
2018-08-25 01:00:00 24.9 0 Calma 6 Noroeste 0 968.1 0.1 51
2018-08-25 00:00:00 26 3 Oeste 8 Oeste 0 968.2 1 49